Time;durP1;ratioP1;P1;durP2;ratioP2;P2;SDS_P1;SDS_P2;PMS_P1;PMS_P2;Temp;Humidity;BMP_temperature;BMP_pressure;BME280_temperature;BME280_humidity;BME280_pressure;Samples;Min_cycle;Max_cycle;Signal;HPM_P1;HPM_P2
2022/05/01 00:01:01;;;;;;;18.20;11.00;;;4.10;99.90;;;;;;4200255;28;20203;-73
2022/05/01 00:03:02;;;;;;;16.97;10.17;;;4.10;99.90;;;;;;4200498;28;20418;-73
2022/05/01 00:05:03;;;;;;;24.13;11.50;;;4.10;99.90;;;;;;4198259;28;20529;-73
2022/05/01 00:07:04;;;;;;;15.67;9.30;;;4.00;99.90;;;;;;4198506;28;20573;-72
2022/05/01 00:09:06;;;;;;;20.03;10.47;;;4.00;99.90;;;;;;4198527;28;20218;-73
2022/05/01 00:11:08;;;;;;;24.37;10.97;;;3.90;99.90;;;;;;4199240;28;20427;-73
2022/05/01 00:13:08;;;;;;;17.63;10.37;;;3.90;99.90;;;;;;4198290;28;21058;-73
2022/05/01 00:15:10;;;;;;;18.83;10.73;;;4.00;99.90;;;;;;4199688;28;20449;-72
2022/05/01 00:17:11;;;;;;;17.90;10.13;;;4.00;99.90;;;;;;4198386;28;20748;-74
2022/05/01 00:19:12;;;;;;;21.23;10.00;;;4.00;99.90;;;;;;4197995;28;20568;-73
2022/05/01 00:21:13;;;;;;;21.13;10.83;;;4.00;99.90;;;;;;4200315;28;20909;-73
2022/05/01 00:23:14;;;;;;;16.83;9.00;;;4.00;99.90;;;;;;4199416;28;20431;-73
2022/05/01 00:25:15;;;;;;;16.57;10.03;;;3.90;99.90;;;;;;4198133;28;20622;-73
2022/05/01 00:27:17;;;;;;;19.10;10.57;;;3.90;99.90;;;;;;4198661;28;20433;-73
2022/05/01 00:29:17;;;;;;;20.53;10.10;;;3.80;99.90;;;;;;4197895;28;20878;-73
2022/05/01 00:31:19;;;;;;;18.57;9.87;;;3.70;99.90;;;;;;4197568;28;20442;-72
2022/05/01 00:37:58;;;;;;;15.67;9.50;;;3.50;99.90;;;;;;4198710;28;20418;-73
2022/05/01 00:40:00;;;;;;;18.10;10.53;;;3.50;99.90;;;;;;4191369;28;20552;-72
2022/05/01 00:42:00;;;;;;;20.50;10.30;;;3.40;99.90;;;;;;4180859;28;20461;-73
2022/05/01 00:44:11;;;;;;;16.63;10.10;;;3.40;99.90;;;;;;4182453;28;20918;-72
2022/05/01 00:46:12;;;;;;;19.90;9.73;;;3.40;99.90;;;;;;4180968;28;20219;-73
2022/05/01 00:48:12;;;;;;;16.23;9.30;;;3.50;99.90;;;;;;4182061;28;20898;-73
2022/05/01 00:50:13;;;;;;;17.00;9.07;;;3.50;99.90;;;;;;4181005;28;20949;-73
2022/05/01 00:52:14;;;;;;;18.17;10.33;;;3.40;99.90;;;;;;4164985;28;20565;-73
2022/05/01 00:54:22;;;;;;;22.30;12.33;;;3.30;99.90;;;;;;4180716;28;20634;-73
2022/05/01 00:56:24;;;;;;;19.37;11.07;;;3.30;99.90;;;;;;4164479;28;20445;-73
2022/05/01 00:58:25;;;;;;;21.00;10.60;;;3.30;99.90;;;;;;4181757;28;20407;-73
2022/05/01 01:00:26;;;;;;;19.07;10.57;;;3.30;99.90;;;;;;4180657;28;20513;-72
2022/05/01 01:02:26;;;;;;;17.70;9.47;;;3.30;99.90;;;;;;4181280;28;20268;-74
2022/05/01 01:04:27;;;;;;;18.47;10.50;;;3.30;99.90;;;;;;4181997;28;20196;-74
2022/05/01 01:06:29;;;;;;;20.23;11.07;;;3.40;99.90;;;;;;4180484;28;20212;-73
2022/05/01 01:08:29;;;;;;;20.17;10.97;;;3.50;99.90;;;;;;4180947;28;20225;-74
2022/05/01 01:10:30;;;;;;;19.00;10.27;;;3.50;99.90;;;;;;4181166;28;20446;-74
2022/05/01 01:14:50;;;;;;;17.73;9.50;;;3.40;99.90;;;;;;4181617;28;20354;-74
2022/05/01 01:16:51;;;;;;;15.90;9.43;;;3.40;99.90;;;;;;4181486;28;20423;-74
2022/05/01 01:18:52;;;;;;;14.50;8.40;;;3.40;99.90;;;;;;4179569;28;20204;-74
2022/05/01 01:20:53;;;;;;;17.17;9.67;;;3.50;99.90;;;;;;4179504;28;20267;-74
2022/05/01 01:22:57;;;;;;;14.73;9.33;;;3.60;99.90;;;;;;4177870;28;20470;-73
2022/05/01 01:24:58;;;;;;;17.37;9.77;;;3.50;99.90;;;;;;4179290;28;20473;-74
2022/05/01 01:27:01;;;;;;;15.27;9.50;;;3.40;99.90;;;;;;4178824;28;20460;-74
2022/05/01 01:31:40;;;;;;;14.03;8.13;;;3.40;99.90;;;;;;4177841;28;20608;-74
2022/05/01 01:31:42;;;;;;;16.07;9.07;;;3.40;99.90;;;;;;4179066;28;20501;-76
2022/05/01 01:33:43;;;;;;;22.77;10.67;;;3.50;99.90;;;;;;4177897;28;20425;-73
2022/05/01 01:35:47;;;;;;;19.00;10.10;;;3.40;99.90;;;;;;4177213;28;20422;-74
2022/05/01 01:37:49;;;;;;;22.60;10.47;;;3.40;99.90;;;;;;4177609;28;20979;-73
2022/05/01 01:39:52;;;;;;;20.37;10.57;;;3.30;99.90;;;;;;4177488;28;20454;-73
2022/05/01 01:41:55;;;;;;;28.13;12.10;;;3.30;99.90;;;;;;4177468;28;20519;-75
2022/05/01 01:43:57;;;;;;;21.43;9.93;;;3.30;99.90;;;;;;4177243;28;20423;-74
2022/05/01 01:45:58;;;;;;;19.80;10.00;;;3.20;99.90;;;;;;4177879;28;20981;-73
2022/05/01 01:48:13;;;;;;;20.57;10.40;;;3.10;99.90;;;;;;4178605;28;20426;-73
2022/05/01 01:50:14;;;;;;;59.23;16.17;;;3.00;99.90;;;;;;4176994;28;20982;-74
2022/05/01 01:52:15;;;;;;;61.13;14.43;;;3.10;99.90;;;;;;4178778;28;20431;-73
2022/05/01 01:54:16;;;;;;;23.57;12.30;;;3.10;99.90;;;;;;4178728;28;20803;-74
2022/05/01 01:56:17;;;;;;;23.73;10.90;;;3.00;99.90;;;;;;4178162;28;20238;-74
2022/05/01 01:58:18;;;;;;;18.77;10.13;;;3.10;99.90;;;;;;4178650;28;20492;-74
2022/05/01 02:00:19;;;;;;;22.33;11.17;;;3.10;99.90;;;;;;4178621;28;20180;-73
2022/05/01 02:02:20;;;;;;;24.33;11.93;;;2.90;99.90;;;;;;4178806;28;20438;-73
2022/05/01 02:04:20;;;;;;;21.23;11.27;;;2.90;99.90;;;;;;4178856;28;20194;-73
2022/05/01 02:06:21;;;;;;;20.30;10.73;;;2.90;99.90;;;;;;4177945;28;20510;-74
2022/05/01 02:08:22;;;;;;;19.50;11.50;;;2.90;99.90;;;;;;4178470;28;20180;-74
2022/05/01 02:10:23;;;;;;;19.77;10.77;;;2.90;99.90;;;;;;4178432;28;20206;-74
2022/05/01 02:12:24;;;;;;;18.20;10.07;;;2.90;99.90;;;;;;4177137;28;20180;-74
2022/05/01 02:14:25;;;;;;;14.67;9.30;;;3.00;99.90;;;;;;4178564;28;20429;-73
2022/05/01 02:16:25;;;;;;;14.83;8.83;;;3.10;99.90;;;;;;4179074;28;20219;-73
2022/05/01 02:18:26;;;;;;;17.90;10.37;;;3.20;99.90;;;;;;4194904;28;20187;-74
2022/05/01 02:21:33;;;;;;;18.17;10.27;;;3.30;99.90;;;;;;4193621;28;20219;-74
2022/05/01 02:22:49;;;;;;;22.27;11.87;;;3.20;99.90;;;;;;4193735;28;20212;-73
2022/05/01 02:24:50;;;;;;;17.23;9.33;;;3.30;99.90;;;;;;4194852;28;20490;-73
2022/05/01 02:26:51;;;;;;;15.33;8.93;;;3.40;99.90;;;;;;4192976;28;20207;-74
2022/05/01 02:28:51;;;;;;;18.83;10.27;;;3.40;99.90;;;;;;4193626;28;20708;-74
2022/05/01 02:30:52;;;;;;;20.63;11.37;;;3.50;99.90;;;;;;4195043;28;20232;-74
2022/05/01 02:32:53;;;;;;;18.53;10.00;;;3.60;99.90;;;;;;4193637;28;20172;-74
2022/05/01 02:34:53;;;;;;;16.97;9.53;;;3.60;99.90;;;;;;4190911;28;20178;-73
2022/05/01 02:36:55;;;;;;;16.17;9.80;;;3.80;99.90;;;;;;4177837;28;20234;-74
2022/05/01 02:38:55;;;;;;;17.07;10.03;;;3.70;99.90;;;;;;4194405;28;20218;-73
2022/05/01 02:40:56;;;;;;;16.20;9.47;;;3.80;99.90;;;;;;4194565;28;20513;-73
2022/05/01 02:42:59;;;;;;;19.23;10.53;;;3.80;99.90;;;;;;4194781;28;20185;-74
2022/05/01 02:44:59;;;;;;;14.40;8.40;;;3.70;99.90;;;;;;4176514;28;20215;-74
2022/05/01 02:47:00;;;;;;;17.00;9.13;;;3.60;99.90;;;;;;4194337;28;20497;-74
2022/05/01 02:49:01;;;;;;;17.43;9.87;;;3.60;99.90;;;;;;4194748;28;20203;-73
2022/05/01 02:51:04;;;;;;;17.13;9.07;;;3.30;99.90;;;;;;4194956;28;20215;-73
2022/05/01 02:53:05;;;;;;;17.27;10.30;;;3.10;99.90;;;;;;4192283;28;20500;-71
2022/05/01 02:55:07;;;;;;;16.10;8.93;;;3.00;99.90;;;;;;4193050;28;20584;-73
2022/05/01 02:57:07;;;;;;;17.00;9.27;;;3.00;99.90;;;;;;4194432;28;20428;-73
2022/05/01 02:59:09;;;;;;;17.73;10.10;;;3.00;99.90;;;;;;4195059;28;20816;-73
2022/05/01 03:01:10;;;;;;;17.47;9.80;;;3.00;99.90;;;;;;4194654;28;20187;-73
2022/05/01 03:03:11;;;;;;;16.90;10.43;;;3.10;99.90;;;;;;4194883;28;20426;-73
2022/05/01 03:05:12;;;;;;;22.77;11.03;;;3.00;99.90;;;;;;4194694;28;20203;-72
2022/05/01 03:07:15;;;;;;;16.43;9.67;;;3.00;99.90;;;;;;4193415;28;20180;-72
2022/05/01 03:09:16;;;;;;;18.33;9.20;;;3.00;99.90;;;;;;4195067;28;20496;-75
2022/05/01 03:11:16;;;;;;;14.47;8.80;;;3.00;99.90;;;;;;4194732;28;20414;-73
2022/05/01 03:13:18;;;;;;;15.33;9.27;;;3.00;99.90;;;;;;4193486;28;20183;-72
2022/05/01 03:15:19;;;;;;;20.27;11.43;;;2.90;99.90;;;;;;4194709;28;20188;-73
2022/05/01 03:17:20;;;;;;;15.87;9.17;;;2.90;99.90;;;;;;4194734;28;20517;-72
2022/05/01 03:23:58;;;;;;;20.43;9.70;;;3.00;99.90;;;;;;4193916;28;20939;-72
2022/05/01 03:25:59;;;;;;;17.23;10.37;;;3.20;99.90;;;;;;4192887;28;20469;-73
2022/05/01 03:28:00;;;;;;;16.97;9.67;;;3.30;99.90;;;;;;4193805;28;20242;-72
2022/05/01 03:30:16;;;;;;;19.93;11.13;;;3.20;99.90;;;;;;4194751;28;20689;-73
2022/05/01 03:32:17;;;;;;;14.67;8.97;;;3.30;99.90;;;;;;4194818;28;20172;-73
2022/05/01 03:34:18;;;;;;;18.40;9.50;;;3.30;99.90;;;;;;4197848;28;20908;-73
2022/05/01 03:36:19;;;;;;;19.37;10.10;;;3.40;99.90;;;;;;4197116;28;20428;-72
2022/05/01 03:38:20;;;;;;;22.67;11.33;;;3.50;99.90;;;;;;4196039;28;20522;-73
2022/05/01 03:40:21;;;;;;;22.37;11.43;;;3.40;99.90;;;;;;4197151;28;20670;-72
2022/05/01 03:42:22;;;;;;;24.40;11.20;;;3.50;99.90;;;;;;4195680;28;20537;-73
2022/05/01 03:44:22;;;;;;;25.53;12.07;;;3.50;99.90;;;;;;4195841;28;20535;-73
2022/05/01 03:46:23;;;;;;;26.13;11.93;;;3.50;99.90;;;;;;4194960;28;20688;-73
2022/05/01 03:48:24;;;;;;;49.67;14.67;;;3.70;99.90;;;;;;4195533;28;20792;-74
2022/05/01 03:50:25;;;;;;;61.43;15.17;;;3.70;99.90;;;;;;4196907;28;20424;-73
2022/05/01 03:52:26;;;;;;;43.63;16.07;;;3.70;99.90;;;;;;4179089;28;20243;-73
2022/05/01 03:54:26;;;;;;;56.67;16.17;;;3.80;99.90;;;;;;4196805;28;20173;-72
2022/05/01 03:56:31;;;;;;;54.43;16.90;;;3.80;99.90;;;;;;4196211;28;20193;-73
2022/05/01 03:58:33;;;;;;;94.30;18.17;;;3.80;99.90;;;;;;4196887;28;20633;-73
2022/05/01 04:00:35;;;;;;;85.00;19.03;;;3.70;99.90;;;;;;4196724;28;20476;-72
2022/05/01 04:02:43;;;;;;;38.57;14.77;;;3.60;99.90;;;;;;4196763;28;20893;-73
2022/05/01 04:04:45;;;;;;;86.80;19.53;;;3.60;99.90;;;;;;4196559;28;20461;-73
2022/05/01 04:06:46;;;;;;;66.17;16.60;;;3.50;99.90;;;;;;4194682;28;20501;-73
2022/05/01 04:08:47;;;;;;;86.73;16.80;;;3.60;99.90;;;;;;4196736;28;20544;-72
2022/05/01 04:10:47;;;;;;;90.47;17.70;;;3.60;99.90;;;;;;4196603;28;20173;-72
2022/05/01 04:12:48;;;;;;;190.00;26.90;;;3.60;99.90;;;;;;4178627;28;20179;-73
2022/05/01 04:14:49;;;;;;;60.47;18.73;;;3.60;99.90;;;;;;4196385;28;20213;-73
2022/05/01 04:16:50;;;;;;;29.13;12.07;;;3.60;99.90;;;;;;4195776;28;20184;-73
2022/05/01 04:18:50;;;;;;;54.20;16.07;;;3.50;99.90;;;;;;4196376;28;20198;-73
2022/05/01 04:20:52;;;;;;;57.83;14.03;;;3.30;99.90;;;;;;4196520;28;20183;-72
2022/05/01 04:22:53;;;;;;;25.53;11.80;;;3.30;99.90;;;;;;4194642;28;20262;-72
2022/05/01 04:24:54;;;;;;;23.67;12.07;;;3.40;99.90;;;;;;4195123;28;20460;-73
2022/05/01 04:26:55;;;;;;;18.23;10.53;;;3.40;99.90;;;;;;4194620;28;20183;-74
2022/05/01 04:31:15;;;;;;;26.40;12.37;;;3.20;99.90;;;;;;4196128;28;20409;-73
2022/05/01 04:33:16;;;;;;;20.80;10.50;;;3.30;99.90;;;;;;4196344;28;20419;-73
2022/05/01 04:35:45;;;;;;;19.70;8.93;;;3.30;99.90;;;;;;4183249;28;20241;-72
2022/05/01 04:37:45;;;;;;;19.93;9.97;;;3.20;99.90;;;;;;4179146;28;20435;-73
2022/05/01 04:39:48;;;;;;;18.50;10.43;;;3.30;99.90;;;;;;4179622;28;20450;-72
2022/05/01 04:41:49;;;;;;;23.40;10.60;;;3.30;99.90;;;;;;4178319;28;20181;-73
2022/05/01 04:43:49;;;;;;;20.00;10.03;;;3.30;99.90;;;;;;4178146;28;20434;-73
2022/05/01 04:45:53;;;;;;;19.83;10.20;;;3.20;99.90;;;;;;4177481;28;20208;-73
2022/05/01 04:47:54;;;;;;;19.70;9.50;;;3.30;99.90;;;;;;4170698;28;20192;-73
2022/05/01 04:49:54;;;;;;;20.40;9.57;;;3.40;99.90;;;;;;4194277;28;20460;-73
2022/05/01 04:51:55;;;;;;;21.27;11.43;;;3.50;99.90;;;;;;4194590;28;20228;-73
2022/05/01 04:53:56;;;;;;;16.73;9.03;;;3.40;99.90;;;;;;4195825;28;20179;-73
2022/05/01 04:57:04;;;;;;;18.07;9.37;;;3.30;99.90;;;;;;4193995;28;20270;-73
2022/05/01 04:58:17;;;;;;;18.07;9.97;;;3.30;99.90;;;;;;4195644;28;20334;-73
2022/05/01 05:00:21;;;;;;;19.97;10.97;;;3.30;99.90;;;;;;4178123;28;20933;-73
2022/05/01 05:02:22;;;;;;;18.60;9.80;;;3.20;99.90;;;;;;4195800;28;20182;-73
2022/05/01 05:04:22;;;;;;;18.80;10.20;;;3.10;99.90;;;;;;4195776;28;20429;-72
2022/05/01 05:06:24;;;;;;;20.97;10.60;;;3.20;99.90;;;;;;4194910;28;20223;-73
2022/05/01 05:10:46;;;;;;;28.73;12.23;;;3.20;99.90;;;;;;4184475;28;20422;-73
2022/05/01 05:12:49;;;;;;;28.43;11.83;;;3.00;99.90;;;;;;4194317;28;20507;-73
2022/05/01 05:14:52;;;;;;;28.17;12.47;;;3.00;99.90;;;;;;4194182;28;20422;-73
2022/05/01 05:16:54;;;;;;;25.60;12.13;;;2.90;99.90;;;;;;4193718;28;20518;-73
2022/05/01 05:18:55;;;;;;;17.13;10.60;;;2.90;99.90;;;;;;4195506;28;20503;-73
2022/05/01 05:20:56;;;;;;;22.17;11.43;;;2.90;99.90;;;;;;4195668;28;20414;-73
2022/05/01 05:22:57;;;;;;;17.60;9.60;;;2.80;99.90;;;;;;4179430;28;20177;-73
2022/05/01 05:24:58;;;;;;;21.20;11.57;;;2.80;99.90;;;;;;4198695;28;20513;-73
2022/05/01 05:26:58;;;;;;;19.83;9.70;;;2.80;99.90;;;;;;4197806;28;20175;-74
2022/05/01 05:28:59;;;;;;;19.13;10.43;;;2.70;99.90;;;;;;4199301;28;20196;-73
2022/05/01 05:31:00;;;;;;;16.07;8.93;;;2.80;99.90;;;;;;4199250;28;20194;-73
2022/05/01 05:33:00;;;;;;;17.03;9.37;;;2.80;99.90;;;;;;4199509;28;20189;-72
2022/05/01 05:35:01;;;;;;;16.50;9.27;;;2.90;99.90;;;;;;4197001;28;20542;-73
2022/05/01 05:37:02;;;;;;;18.60;10.10;;;3.00;99.90;;;;;;4194944;28;20184;-72
2022/05/01 05:39:03;;;;;;;15.27;8.27;;;3.10;99.90;;;;;;4195502;28;20330;-72
2022/05/01 05:41:05;;;;;;;17.77;9.63;;;3.20;99.90;;;;;;4193954;28;20207;-73
2022/05/01 05:43:05;;;;;;;16.90;9.67;;;3.30;99.90;;;;;;4195310;28;20183;-72
2022/05/01 05:45:07;;;;;;;17.03;9.27;;;3.30;99.90;;;;;;4193792;28;20904;-73
2022/05/01 05:47:07;;;;;;;19.50;10.43;;;3.40;99.90;;;;;;4195030;28;20546;-72
2022/05/01 05:49:08;;;;;;;18.03;9.63;;;3.50;99.90;;;;;;4194038;28;20434;-73
2022/05/01 05:51:09;;;;;;;16.70;9.77;;;3.50;99.90;;;;;;4193697;28;20184;-73
2022/05/01 05:53:09;;;;;;;13.53;8.63;;;3.60;99.90;;;;;;4193895;28;20181;-74
2022/05/01 05:55:10;;;;;;;16.77;8.70;;;3.60;99.90;;;;;;4194611;28;20180;-74
2022/05/01 05:57:11;;;;;;;15.60;9.67;;;3.70;99.90;;;;;;4194735;28;20183;-72
2022/05/01 05:59:11;;;;;;;16.07;9.67;;;3.70;99.90;;;;;;4195219;28;20204;-72
2022/05/01 06:01:12;;;;;;;15.47;9.30;;;3.90;99.90;;;;;;4194954;28;20183;-73
2022/05/01 06:03:13;;;;;;;16.10;8.90;;;3.80;99.90;;;;;;4193643;28;20186;-73
2022/05/01 06:05:13;;;;;;;16.13;9.10;;;3.90;99.90;;;;;;4193479;28;20196;-72
2022/05/01 06:07:14;;;;;;;16.57;10.00;;;3.90;99.90;;;;;;4194490;28;20201;-73
2022/05/01 06:09:15;;;;;;;18.53;10.10;;;4.00;99.90;;;;;;4195035;28;20201;-72
2022/05/01 06:11:15;;;;;;;19.67;11.13;;;4.00;99.90;;;;;;4195184;28;20232;-72
2022/05/01 06:13:16;;;;;;;19.93;10.23;;;4.20;99.90;;;;;;4194998;28;20184;-73
2022/05/01 06:15:17;;;;;;;16.50;10.00;;;4.20;99.90;;;;;;4194802;28;20333;-72
2022/05/01 06:17:17;;;;;;;18.30;9.97;;;4.30;99.90;;;;;;4194579;28;20172;-72
2022/05/01 06:19:18;;;;;;;17.57;10.20;;;4.40;99.90;;;;;;4194549;28;20223;-72
2022/05/01 06:21:19;;;;;;;18.23;10.90;;;4.50;99.90;;;;;;4194510;28;20191;-72
2022/05/01 06:23:23;;;;;;;17.73;9.87;;;4.50;99.90;;;;;;4194674;28;20186;-73
2022/05/01 06:25:24;;;;;;;18.73;11.07;;;4.70;99.90;;;;;;4194010;28;20292;-72
2022/05/01 06:27:25;;;;;;;17.63;10.73;;;4.80;99.90;;;;;;4194617;28;20423;-72
2022/05/01 06:29:25;;;;;;;18.20;9.97;;;4.90;99.90;;;;;;4184688;28;20488;-72
2022/05/01 06:31:27;;;;;;;19.37;10.63;;;5.10;99.90;;;;;;4193209;28;20197;-72
2022/05/01 06:33:29;;;;;;;17.30;10.23;;;5.40;99.90;;;;;;4176828;28;20658;-72
2022/05/01 06:35:31;;;;;;;18.33;11.73;;;5.60;99.90;;;;;;4176045;28;20442;-72
2022/05/01 06:37:34;;;;;;;20.50;12.23;;;5.90;99.90;;;;;;4177973;28;20484;-72
2022/05/01 06:39:35;;;;;;;19.00;11.70;;;6.20;99.90;;;;;;4178072;28;20449;-73
2022/05/01 06:41:36;;;;;;;18.03;10.70;;;6.50;99.90;;;;;;4177832;28;21032;-72
2022/05/01 06:43:36;;;;;;;18.63;10.77;;;6.80;99.90;;;;;;4176538;28;20179;-73
2022/05/01 06:45:37;;;;;;;18.57;11.50;;;7.10;99.90;;;;;;4175777;28;20208;-73
2022/05/01 06:47:38;;;;;;;17.30;10.40;;;7.10;99.90;;;;;;4176426;28;20226;-72
2022/05/01 06:49:39;;;;;;;15.73;9.70;;;7.30;99.90;;;;;;4177620;28;20223;-73
2022/05/01 06:51:39;;;;;;;14.73;9.70;;;7.50;99.90;;;;;;4177623;28;20187;-73
2022/05/01 06:53:41;;;;;;;17.97;10.57;;;7.90;99.90;;;;;;4177760;28;20918;-73
2022/05/01 06:55:42;;;;;;;18.70;10.60;;;7.90;99.90;;;;;;4175670;28;20189;-73
2022/05/01 06:57:43;;;;;;;14.33;9.53;;;8.00;99.90;;;;;;4176394;28;20435;-73
2022/05/01 06:59:44;;;;;;;17.50;10.43;;;8.00;99.90;;;;;;4177634;28;20442;-72
2022/05/01 07:01:47;;;;;;;18.47;11.40;;;8.10;99.90;;;;;;4177606;28;20193;-73
2022/05/01 07:03:48;;;;;;;16.00;10.97;;;8.10;99.80;;;;;;4177752;28;20185;-72
2022/05/01 07:05:49;;;;;;;12.00;8.93;;;7.90;99.90;;;;;;4177024;28;20463;-73
2022/05/01 07:07:50;;;;;;;12.47;8.33;;;7.90;99.90;;;;;;4177191;28;20192;-72
2022/05/01 07:09:50;;;;;;;17.97;14.20;;;8.20;99.90;;;;;;4180948;28;20212;-73
2022/05/01 07:11:51;;;;;;;14.00;9.50;;;8.40;99.30;;;;;;4179551;28;20637;-72
2022/05/01 07:13:52;;;;;;;14.30;8.73;;;8.70;99.90;;;;;;4180798;28;20544;-74
2022/05/01 07:15:52;;;;;;;14.60;10.00;;;9.10;97.10;;;;;;4179012;28;20180;-73
2022/05/01 07:17:53;;;;;;;13.23;9.23;;;8.60;96.90;;;;;;4180939;28;20218;-72
2022/05/01 07:19:54;;;;;;;14.23;9.43;;;8.70;96.70;;;;;;4181063;28;20264;-72
2022/05/01 07:21:54;;;;;;;17.30;10.83;;;8.50;97.00;;;;;;4180948;28;20187;-73
2022/05/01 07:23:55;;;;;;;15.10;10.40;;;8.00;99.10;;;;;;4179428;28;20202;-72
2022/05/01 07:25:56;;;;;;;12.80;9.10;;;8.00;99.90;;;;;;4180144;28;20207;-73
2022/05/01 07:27:57;;;;;;;14.57;9.23;;;8.10;99.50;;;;;;4179357;28;20179;-73
2022/05/01 07:29:58;;;;;;;13.67;9.50;;;8.60;98.90;;;;;;4180704;28;20188;-73
2022/05/01 07:31:59;;;;;;;14.30;8.57;;;8.70;96.90;;;;;;4180625;28;20561;-73
2022/05/01 07:33:59;;;;;;;15.40;10.20;;;8.80;97.10;;;;;;4180676;28;20186;-73
2022/05/01 07:36:01;;;;;;;16.07;10.20;;;8.60;97.60;;;;;;4179994;28;20179;-73
2022/05/01 07:38:02;;;;;;;15.83;10.77;;;8.90;95.90;;;;;;4179396;28;20612;-73
2022/05/01 07:40:03;;;;;;;13.30;8.90;;;8.80;96.30;;;;;;4180650;28;20252;-73
2022/05/01 07:42:04;;;;;;;16.07;10.27;;;8.90;95.10;;;;;;4179186;28;20223;-73
2022/05/01 07:44:04;;;;;;;13.50;9.13;;;8.70;96.00;;;;;;4179123;28;20215;-72
2022/05/01 07:46:05;;;;;;;14.53;9.97;;;8.50;96.60;;;;;;4179836;28;20731;-73
2022/05/01 07:48:06;;;;;;;12.43;8.20;;;8.60;95.70;;;;;;4180437;28;20553;-73
2022/05/01 07:50:08;;;;;;;16.03;11.43;;;9.00;95.40;;;;;;4178897;28;20296;-73
2022/05/01 07:52:09;;;;;;;10.10;8.10;;;8.40;96.10;;;;;;4180373;28;20183;-73
2022/05/01 07:54:10;;;;;;;12.97;9.10;;;8.10;98.20;;;;;;4180300;28;20176;-74
2022/05/01 07:56:11;;;;;;;12.47;9.03;;;8.50;97.40;;;;;;4178642;28;20193;-74
2022/05/01 07:58:12;;;;;;;13.40;9.20;;;8.60;95.70;;;;;;4180484;28;20396;-74
2022/05/01 08:00:13;;;;;;;11.60;8.33;;;8.40;95.90;;;;;;4180184;28;20298;-74
2022/05/01 08:02:13;;;;;;;14.87;10.63;;;8.40;96.90;;;;;;4180391;28;20227;-74
2022/05/01 08:04:29;;;;;;;12.70;9.33;;;8.60;96.60;;;;;;4180489;28;20613;-74
2022/05/01 08:06:30;;;;;;;11.70;8.70;;;8.70;97.00;;;;;;4178179;28;20216;-74
2022/05/01 08:08:33;;;;;;;13.80;9.03;;;9.10;96.50;;;;;;4179038;28;20210;-74
2022/05/01 08:10:34;;;;;;;14.80;9.90;;;9.30;95.70;;;;;;4180207;28;20184;-73
2022/05/01 08:12:34;;;;;;;11.87;8.60;;;9.50;94.40;;;;;;4178882;28;20284;-74
2022/05/01 08:14:37;;;;;;;13.30;9.13;;;10.10;92.50;;;;;;4180142;28;20667;-74
2022/05/01 08:16:42;;;;;;;17.70;13.80;;;10.10;90.50;;;;;;4179579;28;20184;-74
2022/05/01 08:21:07;;;;;;;11.07;7.70;;;9.70;91.10;;;;;;4182172;28;20555;-73
2022/05/01 08:23:09;;;;;;;11.47;7.93;;;9.70;91.80;;;;;;4196355;28;20580;-74
2022/05/01 08:25:11;;;;;;;12.17;8.70;;;10.30;89.70;;;;;;4196348;28;20219;-73
2022/05/01 08:27:12;;;;;;;11.30;8.30;;;10.50;88.70;;;;;;4194733;28;20172;-74
2022/05/01 08:29:14;;;;;;;11.87;8.10;;;10.60;90.40;;;;;;4196634;28;20191;-74
2022/05/01 08:31:14;;;;;;;12.43;9.00;;;10.90;86.50;;;;;;4195191;28;20295;-75
2022/05/01 08:33:15;;;;;;;13.03;8.20;;;10.50;86.90;;;;;;4186795;28;20326;-74
2022/05/01 08:35:16;;;;;;;10.90;8.13;;;11.00;86.50;;;;;;4179979;28;20279;-73
2022/05/01 08:37:16;;;;;;;11.50;8.40;;;11.10;83.00;;;;;;4178232;28;20188;-74
2022/05/01 08:39:17;;;;;;;10.87;8.53;;;11.40;81.70;;;;;;4178545;28;20679;-74
2022/05/01 08:41:18;;;;;;;11.53;8.90;;;11.90;77.60;;;;;;4179713;28;20283;-73
2022/05/01 08:43:23;;;;;;;13.07;8.43;;;11.10;77.60;;;;;;4182152;28;20184;-73
2022/05/01 08:45:26;;;;;;;11.40;8.67;;;10.70;82.40;;;;;;4177802;28;20264;-71
2022/05/01 08:48:09;;;;;;;12.97;9.90;;;11.10;84.30;;;;;;4177982;28;20212;-72
2022/05/01 08:50:10;;;;;;;11.63;8.07;;;11.40;79.50;;;;;;4177939;28;20238;-74
2022/05/01 08:52:12;;;;;;;15.20;10.00;;;11.20;82.00;;;;;;4209788;28;20634;-73
2022/05/01 08:54:15;;;;;;;13.50;9.23;;;11.30;79.40;;;;;;4196886;28;20291;-72
2022/05/01 08:56:18;;;;;;;13.33;8.33;;;10.90;80.80;;;;;;4208790;28;20179;-74
2022/05/01 08:58:19;;;;;;;15.13;11.17;;;11.00;80.40;;;;;;4198887;28;20175;-73
2022/05/01 09:00:20;;;;;;;15.00;8.90;;;10.10;85.40;;;;;;4207601;28;20190;-73
2022/05/01 09:02:21;;;;;;;16.33;10.27;;;10.00;87.10;;;;;;4197462;28;20235;-73
2022/05/01 09:04:24;;;;;;;16.03;11.07;;;9.50;90.20;;;;;;4207249;28;20238;-73
2022/05/01 09:06:25;;;;;;;15.67;11.33;;;9.80;90.80;;;;;;4198946;28;20218;-73
2022/05/01 09:08:28;;;;;;;14.70;10.13;;;9.90;87.90;;;;;;4206534;28;20175;-72
2022/05/01 09:10:32;;;;;;;13.00;9.17;;;10.10;90.40;;;;;;4198517;28;20751;-73
2022/05/01 09:12:52;;;;;;;12.80;8.90;;;10.10;89.10;;;;;;4205498;28;20190;-74
2022/05/01 09:14:52;;;;;;;10.80;8.27;;;10.60;84.10;;;;;;4203207;28;20198;-74
2022/05/01 09:17:17;;;;;;;10.43;7.83;;;11.10;81.60;;;;;;4202924;28;20180;-75
2022/05/01 09:19:30;;;;;;;11.50;8.60;;;10.40;82.20;;;;;;4205489;28;20218;-74
2022/05/01 09:21:50;;;;;;;10.77;7.60;;;10.90;80.90;;;;;;4197291;28;20187;-73
2022/05/01 09:23:50;;;;;;;12.23;9.37;;;11.60;74.90;;;;;;4209971;28;20194;-71
2022/05/01 09:25:58;;;;;;;9.50;7.50;;;11.30;76.10;;;;;;4194912;28;20208;-71
2022/05/01 09:28:18;;;;;;;12.50;9.10;;;10.60;80.70;;;;;;4179691;28;20286;-72
2022/05/01 09:30:23;;;;;;;10.17;7.60;;;11.10;83.10;;;;;;4206509;28;20730;-72
2022/05/01 09:32:41;;;;;;;13.03;8.63;;;11.50;75.10;;;;;;4198918;28;20175;-72
2022/05/01 09:34:50;;;;;;;10.93;8.47;;;11.50;72.80;;;;;;4203895;28;20175;-72
2022/05/01 09:36:52;;;;;;;12.10;7.37;;;12.00;72.40;;;;;;4200747;28;20193;-72
2022/05/01 09:39:05;;;;;;;11.43;8.50;;;11.60;72.60;;;;;;4202267;28;20211;-72
2022/05/01 09:41:17;;;;;;;10.47;8.37;;;11.90;72.20;;;;;;4204596;28;20219;-71
2022/05/01 09:43:41;;;;;;;11.77;9.07;;;11.90;73.60;;;;;;4198465;28;20668;-71
2022/05/01 09:45:42;;;;;;;9.77;7.67;;;12.00;71.50;;;;;;4208841;28;20207;-71
2022/05/01 09:47:45;;;;;;;8.87;6.93;;;11.60;73.70;;;;;;4196195;28;20807;-70
2022/05/01 09:49:50;;;;;;;9.47;7.10;;;11.50;79.80;;;;;;4210011;28;20202;-72
2022/05/01 09:51:56;;;;;;;14.10;8.60;;;11.70;74.40;;;;;;4193943;28;20187;-71
2022/05/01 09:53:59;;;;;;;11.30;8.07;;;11.90;77.60;;;;;;4177123;28;20275;-72
2022/05/01 09:56:01;;;;;;;9.90;7.33;;;12.00;72.80;;;;;;4225520;28;20649;-73
2022/05/01 09:58:13;;;;;;;8.83;7.00;;;12.00;74.70;;;;;;4195454;28;20289;-73
2022/05/01 10:00:14;;;;;;;9.50;6.80;;;12.40;74.30;;;;;;4208485;28;20630;-73
2022/05/01 10:02:15;;;;;;;8.60;6.33;;;12.70;69.50;;;;;;4197401;28;20179;-72
2022/05/01 10:04:18;;;;;;;8.87;6.73;;;13.70;66.40;;;;;;4208567;28;20194;-72
2022/05/01 10:06:20;;;;;;;10.50;8.03;;;13.20;65.20;;;;;;4179020;28;20710;-72
2022/05/01 10:08:21;;;;;;;9.67;7.23;;;12.20;71.20;;;;;;4206325;28;20171;-73
2022/05/01 10:10:22;;;;;;;12.00;6.97;;;12.60;75.70;;;;;;4196907;28;20236;-72
2022/05/01 10:12:26;;;;;;;10.73;7.10;;;13.40;68.80;;;;;;4205955;28;20666;-73
2022/05/01 10:14:28;;;;;;;10.07;6.97;;;13.70;64.50;;;;;;4197421;28;20254;-73
2022/05/01 10:16:28;;;;;;;7.93;6.37;;;13.90;62.20;;;;;;4204577;28;20191;-72
2022/05/01 10:18:30;;;;;;;8.67;6.10;;;13.80;61.70;;;;;;4197739;28;20178;-73
2022/05/01 10:20:34;;;;;;;9.37;6.83;;;14.00;60.10;;;;;;4204863;28;20733;-72
2022/05/01 10:22:35;;;;;;;8.47;6.47;;;13.80;59.10;;;;;;4181999;28;20679;-72
2022/05/01 10:24:37;;;;;;;7.00;5.43;;;13.50;60.00;;;;;;4204004;28;20187;-72
2022/05/01 10:26:46;;;;;;;7.70;6.03;;;14.00;59.20;;;;;;4199654;28;20202;-72
2022/05/01 10:29:21;;;;;;;7.17;5.53;;;14.00;59.40;;;;;;4194529;28;20195;-72
2022/05/01 10:34:57;;;;;;;11.50;7.37;;;14.90;56.00;;;;;;4183663;28;20251;-70
2022/05/01 10:37:42;;;;;;;8.57;5.93;;;14.20;68.30;;;;;;4200380;28;20183;-73
2022/05/01 10:39:45;;;;;;;8.33;6.40;;;14.90;57.00;;;;;;4209179;28;20837;-74
2022/05/01 10:41:47;;;;;;;10.07;7.77;;;15.80;55.60;;;;;;4196465;28;20270;-73
2022/05/01 10:43:59;;;;;;;7.97;6.30;;;16.60;53.40;;;;;;4213424;28;20190;-73
2022/05/01 10:46:24;;;;;;;6.90;6.20;;;17.20;52.30;;;;;;4181744;28;20870;-74
2022/05/01 10:48:31;;;;;;;8.93;7.50;;;17.10;49.90;;;;;;4210022;28;20191;-72
2022/05/01 10:50:32;;;;;;;7.77;6.47;;;15.70;52.70;;;;;;4202700;28;20178;-72
2022/05/01 10:52:33;;;;;;;8.30;6.57;;;15.40;53.80;;;;;;4208999;28;20233;-72
2022/05/01 10:54:36;;;;;;;8.73;5.83;;;15.70;54.60;;;;;;4201493;28;20183;-72
2022/05/01 10:56:44;;;;;;;6.57;4.70;;;15.80;54.40;;;;;;4206723;28;20187;-73